createdAt,value
2017-07-17T00:01:36.842Z,82.30
2017-07-17T00:04:05.868Z,82.70
2017-07-17T00:06:34.154Z,82.60
2017-07-17T00:09:02.420Z,82.70
2017-07-17T00:11:30.710Z,83.20
2017-07-17T00:13:59.014Z,82.70
2017-07-17T00:16:28.069Z,82.60
2017-07-17T00:18:56.350Z,82.50
2017-07-17T00:21:24.648Z,82.50
2017-07-17T00:23:52.917Z,82.70
2017-07-17T00:26:21.159Z,82.40
2017-07-17T00:28:49.473Z,82.50
2017-07-17T00:31:17.712Z,82.60
2017-07-17T00:33:46.002Z,82.50
2017-07-17T00:36:14.259Z,82.70
2017-07-17T00:38:42.517Z,83.20
2017-07-17T00:41:10.765Z,83.20
2017-07-17T00:43:39.035Z,83.50
2017-07-17T00:46:07.299Z,83.40
2017-07-17T00:48:35.587Z,83.50
2017-07-17T00:51:03.843Z,83.60
2017-07-17T00:53:32.098Z,82.90
2017-07-17T00:56:01.142Z,83.20
2017-07-17T00:58:29.428Z,83.20
2017-07-17T01:00:57.697Z,83.20
2017-07-17T01:03:25.960Z,82.80
2017-07-17T01:05:54.236Z,83.80
2017-07-17T01:08:22.485Z,83.00
2017-07-17T01:10:51.500Z,82.20
2017-07-17T01:13:19.776Z,82.20
2017-07-17T01:15:48.039Z,82.20
2017-07-17T01:18:16.294Z,82.20
2017-07-17T01:20:45.348Z,82.60
2017-07-17T01:23:13.590Z,82.60
2017-07-17T01:25:41.831Z,83.60
2017-07-17T01:28:10.101Z,83.00
2017-07-17T01:30:38.355Z,82.30
2017-07-17T01:33:06.626Z,82.70
2017-07-17T01:35:34.871Z,82.90
2017-07-17T01:38:03.151Z,82.90
2017-07-17T01:40:31.438Z,83.20
2017-07-17T01:42:59.763Z,83.50
2017-07-17T01:45:28.027Z,83.60
2017-07-17T01:47:56.301Z,83.90
2017-07-17T01:50:24.584Z,83.80
2017-07-17T01:52:52.936Z,83.90
2017-07-17T01:55:21.192Z,84.00
2017-07-17T01:57:49.459Z,83.60
2017-07-17T02:00:17.764Z,83.80
2017-07-17T02:02:46.042Z,83.20
2017-07-17T02:05:14.376Z,82.90
2017-07-17T02:07:42.676Z,82.90
2017-07-17T02:10:10.954Z,83.20
2017-07-17T02:12:39.227Z,83.20
2017-07-17T02:15:07.484Z,83.60
2017-07-17T02:17:36.523Z,83.90
2017-07-17T02:20:04.768Z,83.80
2017-07-17T02:22:33.829Z,83.80
2017-07-17T02:25:02.079Z,83.70
2017-07-17T02:27:30.341Z,83.20
2017-07-17T02:29:58.630Z,82.70
2017-07-17T02:32:26.895Z,82.80
2017-07-17T02:34:55.165Z,83.10
2017-07-17T02:37:23.426Z,83.40
2017-07-17T02:39:52.455Z,83.20
2017-07-17T02:42:20.706Z,83.20
2017-07-17T02:44:49.115Z,83.20
2017-07-17T02:47:17.397Z,83.20
2017-07-17T02:49:45.667Z,83.60
2017-07-17T02:52:13.904Z,83.80
2017-07-17T02:54:42.941Z,83.80
2017-07-17T02:57:11.174Z,83.80
2017-07-17T02:59:40.188Z,84.30
2017-07-17T03:02:08.463Z,84.30
2017-07-17T03:04:36.711Z,84.30
2017-07-17T03:07:04.957Z,84.50
2017-07-17T03:09:33.242Z,85.10
2017-07-17T03:12:01.511Z,85.60
2017-07-17T03:14:29.753Z,85.60
2017-07-17T03:16:58.055Z,86.20
2017-07-17T03:19:26.327Z,85.70
2017-07-17T03:21:54.590Z,85.60
2017-07-17T03:24:22.833Z,85.60
2017-07-17T03:26:51.879Z,85.30
2017-07-17T03:29:20.133Z,85.30
2017-07-17T03:31:48.414Z,85.20
2017-07-17T03:34:16.663Z,84.80
2017-07-17T03:36:45.698Z,85.50
2017-07-17T03:39:13.949Z,85.40
2017-07-17T03:41:42.968Z,85.50
2017-07-17T03:44:11.247Z,85.40
2017-07-17T03:46:39.504Z,85.40
2017-07-17T03:49:07.761Z,85.50
2017-07-17T03:51:36.847Z,85.30
2017-07-17T03:54:05.175Z,85.30
2017-07-17T03:56:33.382Z,85.50
2017-07-17T03:59:01.644Z,85.00
2017-07-17T04:01:29.897Z,85.00
2017-07-17T04:03:58.169Z,84.70
2017-07-17T04:06:26.417Z,84.40
2017-07-17T04:08:55.448Z,84.00
2017-07-17T04:11:23.708Z,84.00
2017-07-17T04:13:51.955Z,83.90
2017-07-17T04:16:20.226Z,84.00
2017-07-17T04:18:48.484Z,84.10
2017-07-17T04:21:16.738Z,84.20
2017-07-17T04:23:44.990Z,84.00
2017-07-17T04:26:13.268Z,84.50
2017-07-17T04:28:42.288Z,85.00
2017-07-17T04:31:10.538Z,85.10
2017-07-17T04:33:38.799Z,85.80
2017-07-17T04:36:07.827Z,84.70
2017-07-17T04:38:36.076Z,84.50
2017-07-17T04:41:04.319Z,84.50
2017-07-17T04:43:32.591Z,84.80
2017-07-17T04:46:00.840Z,85.20
2017-07-17T04:48:29.116Z,84.40
2017-07-17T04:50:57.390Z,83.70
2017-07-17T04:53:25.670Z,84.20
2017-07-17T04:55:53.923Z,83.70
2017-07-17T04:58:22.181Z,83.90
2017-07-17T05:00:51.199Z,83.40
2017-07-17T05:03:19.449Z,83.40
2017-07-17T05:05:47.707Z,83.70
2017-07-17T05:08:15.983Z,83.60
2017-07-17T05:10:44.227Z,84.30
2017-07-17T05:13:12.508Z,84.60
2017-07-17T05:15:40.837Z,85.20
2017-07-17T05:18:09.079Z,85.60
2017-07-17T05:20:37.369Z,85.10
2017-07-17T05:23:05.622Z,85.80
2017-07-17T05:25:33.821Z,85.20
2017-07-17T05:28:02.134Z,85.60
2017-07-17T05:30:31.190Z,85.70
2017-07-17T05:32:59.454Z,85.70
2017-07-17T05:35:27.702Z,86.10
2017-07-17T05:37:55.978Z,86.60
2017-07-17T05:40:24.259Z,86.60
2017-07-17T05:42:52.528Z,87.00
2017-07-17T05:45:20.768Z,86.90
2017-07-17T05:47:49.003Z,85.70
2017-07-17T05:50:17.313Z,85.50
2017-07-17T05:52:45.579Z,85.80
2017-07-17T05:55:13.835Z,85.40
2017-07-17T05:57:42.111Z,85.40
2017-07-17T06:00:10.375Z,85.30
2017-07-17T06:02:38.643Z,84.20
2017-07-17T06:05:06.877Z,84.00
2017-07-17T06:07:35.147Z,83.80
2017-07-17T06:10:03.401Z,84.40
2017-07-17T06:12:31.659Z,84.20
2017-07-17T06:15:00.143Z,83.80
2017-07-17T06:17:28.383Z,83.20
2017-07-17T06:19:56.631Z,82.80
2017-07-17T06:22:24.893Z,83.10
2017-07-17T06:24:53.173Z,83.60
2017-07-17T06:27:21.439Z,84.50
2017-07-17T06:29:49.688Z,84.10
2017-07-17T06:32:18.683Z,82.60
2017-07-17T06:34:47.712Z,82.50
2017-07-17T06:37:15.940Z,82.40
2017-07-17T06:39:44.979Z,81.60
2017-07-17T06:42:13.228Z,81.60
2017-07-17T06:44:41.489Z,81.40
2017-07-17T06:47:10.512Z,81.10
2017-07-17T06:49:38.759Z,81.10
2017-07-17T06:52:07.808Z,81.40
2017-07-17T06:54:36.050Z,81.30
2017-07-17T06:57:05.044Z,81.70
2017-07-17T06:59:34.083Z,81.60
2017-07-17T07:02:02.339Z,81.70
2017-07-17T07:04:30.608Z,81.90
2017-07-17T07:06:58.859Z,82.00
2017-07-17T07:09:27.898Z,80.70
2017-07-17T07:11:56.119Z,80.60
2017-07-17T07:14:25.193Z,81.00
2017-07-17T07:16:53.467Z,81.00
2017-07-17T07:19:21.737Z,81.20
2017-07-17T07:21:50.008Z,82.40
2017-07-17T07:24:18.308Z,82.20
2017-07-17T07:26:46.557Z,82.00
2017-07-17T07:29:14.828Z,81.40
2017-07-17T07:31:43.076Z,82.10
2017-07-17T07:34:11.352Z,81.80
2017-07-17T07:36:39.607Z,82.10
2017-07-17T07:39:08.632Z,81.10
2017-07-17T07:41:37.617Z,80.30
2017-07-17T07:44:05.998Z,80.20
2017-07-17T07:46:34.273Z,79.80
2017-07-17T07:49:03.258Z,78.50
2017-07-17T07:51:31.537Z,78.10
2017-07-17T07:54:00.552Z,77.30
2017-07-17T07:56:28.839Z,77.30
2017-07-17T07:58:57.106Z,78.10
2017-07-17T08:01:26.122Z,75.80
2017-07-17T08:03:54.489Z,75.80
2017-07-17T08:06:23.483Z,78.20
2017-07-17T08:08:51.736Z,78.20
2017-07-17T08:11:20.749Z,76.30
2017-07-17T08:13:49.005Z,76.30
2017-07-17T08:16:18.051Z,75.90
2017-07-17T08:18:46.304Z,75.90
2017-07-17T08:21:14.536Z,77.70
2017-07-17T08:23:43.716Z,76.80
2017-07-17T08:26:12.059Z,76.80
2017-07-17T08:28:40.286Z,77.50
2017-07-17T08:31:09.327Z,78.30
2017-07-17T08:33:37.576Z,77.60
2017-07-17T08:36:06.605Z,77.90
2017-07-17T08:38:34.852Z,77.90
2017-07-17T08:41:03.151Z,79.00
2017-07-17T08:43:31.392Z,78.40
2017-07-17T08:46:00.441Z,80.40
2017-07-17T08:48:28.707Z,80.40
2017-07-17T08:50:57.028Z,78.40
2017-07-17T08:53:25.264Z,79.10
2017-07-17T08:55:53.546Z,79.30
2017-07-17T08:58:21.797Z,76.70
2017-07-17T09:00:50.085Z,76.50
2017-07-17T09:03:18.349Z,77.00
2017-07-17T09:05:46.603Z,77.60
2017-07-17T09:08:14.923Z,77.60
2017-07-17T09:10:43.160Z,77.60
2017-07-17T09:13:12.200Z,77.40
2017-07-17T09:15:40.497Z,77.40
2017-07-17T09:18:08.768Z,77.50
2017-07-17T09:20:37.054Z,78.00
2017-07-17T09:23:05.324Z,77.60
2017-07-17T09:25:33.672Z,77.40
2017-07-17T09:28:01.930Z,77.60
2017-07-17T09:30:30.195Z,78.20
2017-07-17T09:32:59.229Z,77.60
2017-07-17T09:35:27.494Z,77.60
2017-07-17T09:37:55.785Z,78.70
2017-07-17T09:40:24.043Z,78.10
2017-07-17T09:42:52.294Z,77.90
2017-07-17T09:45:21.318Z,78.80
2017-07-17T09:47:49.602Z,78.70
2017-07-17T09:50:17.875Z,79.00
2017-07-17T09:52:46.110Z,79.20
2017-07-17T09:55:14.416Z,78.40
2017-07-17T09:57:42.667Z,78.10
2017-07-17T10:00:10.943Z,78.10
2017-07-17T10:02:39.227Z,78.50
2017-07-17T10:05:07.468Z,78.20
2017-07-17T10:07:35.743Z,78.30
2017-07-17T10:10:04.032Z,78.20
2017-07-17T10:12:32.303Z,78.50
2017-07-17T10:15:00.585Z,78.50
2017-07-17T10:17:29.776Z,78.10
2017-07-17T10:19:58.013Z,78.00
2017-07-17T10:22:26.270Z,78.50
2017-07-17T10:24:55.294Z,78.40
2017-07-17T10:27:23.562Z,77.70
2017-07-17T10:29:51.868Z,77.30
2017-07-17T10:32:20.092Z,76.20
2017-07-17T10:34:48.379Z,75.30
2017-07-17T10:37:17.445Z,75.60
2017-07-17T10:39:47.265Z,74.70
2017-07-17T10:42:16.321Z,74.60
2017-07-17T10:44:44.576Z,74.20
2017-07-17T10:47:12.854Z,74.20
2017-07-17T10:49:41.175Z,74.50
2017-07-17T10:52:09.450Z,74.00
2017-07-17T10:54:37.695Z,74.20
2017-07-17T10:57:05.981Z,75.00
2017-07-17T10:59:34.288Z,74.30
2017-07-17T11:02:02.564Z,74.50
2017-07-17T11:04:30.828Z,74.30
2017-07-17T11:06:59.071Z,74.90
2017-07-17T11:09:27.371Z,74.80
2017-07-17T11:11:55.641Z,74.20
2017-07-17T11:14:23.900Z,75.20
2017-07-17T11:16:52.905Z,74.90
2017-07-17T11:19:21.190Z,74.90
2017-07-17T11:21:49.436Z,74.80
2017-07-17T11:24:17.743Z,74.70
2017-07-17T11:26:45.992Z,74.70
2017-07-17T11:29:14.264Z,75.00
2017-07-17T11:31:43.464Z,74.00
2017-07-17T11:34:12.482Z,72.20
2017-07-17T11:36:40.761Z,72.20
2017-07-17T11:39:09.018Z,71.50
2017-07-17T11:41:38.038Z,68.10
2017-07-17T11:44:06.427Z,68.10
2017-07-17T11:56:49.139Z,67.40
2017-07-17T11:59:17.415Z,66.40
2017-07-17T12:01:45.733Z,66.80
2017-07-17T12:04:13.980Z,65.90
2017-07-17T12:06:42.260Z,66.90
2017-07-17T12:09:10.535Z,66.80
2017-07-17T12:11:38.803Z,66.20
2017-07-17T12:14:07.067Z,65.90
2017-07-17T12:16:35.377Z,66.90
2017-07-17T12:19:03.639Z,67.20
2017-07-17T12:21:31.894Z,67.40
2017-07-17T12:24:01.071Z,66.70
2017-07-17T12:26:29.386Z,66.50
2017-07-17T12:28:57.674Z,66.10
2017-07-17T12:31:25.978Z,63.90
2017-07-17T12:33:55.038Z,63.10
2017-07-17T12:36:23.322Z,63.10
2017-07-17T12:38:52.374Z,62.80
2017-07-17T12:41:20.635Z,63.30
2017-07-17T12:43:48.906Z,63.20
2017-07-17T12:46:18.004Z,62.90
2017-07-17T12:48:46.239Z,62.90
2017-07-17T12:51:14.598Z,63.50
2017-07-17T12:53:42.836Z,64.60
2017-07-17T12:56:11.127Z,63.30
2017-07-17T12:58:39.394Z,62.80
2017-07-17T13:01:07.702Z,61.60
2017-07-17T13:03:35.949Z,62.60
2017-07-17T13:06:04.224Z,61.70
2017-07-17T13:08:33.470Z,62.30
2017-07-17T13:11:01.714Z,62.40
2017-07-17T13:13:30.011Z,63.60
2017-07-17T13:15:58.259Z,62.20
2017-07-17T13:18:26.576Z,62.30
2017-07-17T13:20:54.838Z,62.60
2017-07-17T13:23:23.114Z,64.00
2017-07-17T13:25:51.510Z,63.70
2017-07-17T13:28:19.778Z,62.60
2017-07-17T13:30:48.025Z,61.30
2017-07-17T13:33:16.314Z,60.90
2017-07-17T13:35:44.571Z,60.80
2017-07-17T13:38:12.833Z,62.10
2017-07-17T13:40:41.884Z,60.40
2017-07-17T13:43:10.148Z,60.40
2017-07-17T13:45:38.404Z,60.30
2017-07-17T13:48:07.497Z,60.40
2017-07-17T13:50:36.529Z,60.40
2017-07-17T13:53:04.785Z,60.40
2017-07-17T13:55:33.054Z,59.00
2017-07-17T13:58:01.355Z,58.30
2017-07-17T14:00:29.586Z,58.20
2017-07-17T14:02:58.161Z,58.70
2017-07-17T14:05:26.418Z,57.50
2017-07-17T14:07:54.775Z,56.70
2017-07-17T14:10:23.345Z,57.20
2017-07-17T14:12:51.662Z,56.50
2017-07-17T14:15:20.012Z,56.70
2017-07-17T14:17:48.273Z,55.90
2017-07-17T14:20:16.587Z,56.80
2017-07-17T14:22:44.840Z,55.30
2017-07-17T14:25:13.115Z,56.10
2017-07-17T14:27:41.393Z,55.40
2017-07-17T14:30:09.758Z,55.80
2017-07-17T14:32:37.997Z,56.10
2017-07-17T14:35:06.285Z,55.50
2017-07-17T14:37:34.558Z,55.70
2017-07-17T14:40:03.647Z,56.90
2017-07-17T14:42:32.901Z,57.20
2017-07-17T14:45:01.166Z,55.30
2017-07-17T14:47:29.452Z,55.70
2017-07-17T14:49:57.681Z,54.70
2017-07-17T14:52:26.708Z,54.80
2017-07-17T14:54:54.991Z,54.80
2017-07-17T14:57:23.265Z,53.20
2017-07-17T14:59:51.662Z,53.10
2017-07-17T15:02:19.880Z,52.70
2017-07-17T15:04:48.936Z,52.60
2017-07-17T15:07:17.215Z,52.60
2017-07-17T15:09:45.473Z,51.30
2017-07-17T15:12:13.747Z,52.40
2017-07-17T15:14:42.767Z,55.20
2017-07-17T15:17:11.020Z,55.20
2017-07-17T15:19:39.328Z,56.60
2017-07-17T15:22:07.599Z,56.30
2017-07-17T15:24:35.889Z,55.30
2017-07-17T15:27:04.165Z,55.00
2017-07-17T15:29:32.446Z,54.00
2017-07-17T15:32:00.692Z,51.90
2017-07-17T15:34:29.084Z,51.80
2017-07-17T15:36:57.325Z,53.10
2017-07-17T15:39:26.354Z,52.20
2017-07-17T15:41:54.635Z,52.10
2017-07-17T15:44:22.908Z,51.50
2017-07-17T15:46:51.386Z,50.70
2017-07-17T15:49:19.695Z,50.60
2017-07-17T15:51:47.922Z,50.90
2017-07-17T15:54:16.196Z,51.40
2017-07-17T15:56:45.272Z,49.80
2017-07-17T15:59:13.591Z,49.70
2017-07-17T16:01:42.386Z,48.70
2017-07-17T16:04:10.635Z,50.30
2017-07-17T16:06:38.872Z,52.90
2017-07-17T16:09:07.182Z,48.90
2017-07-17T16:11:36.819Z,52.60
2017-07-17T16:14:05.057Z,52.50
2017-07-17T16:16:34.106Z,52.40
2017-07-17T16:19:02.373Z,53.80
2017-07-17T16:21:30.616Z,52.20
2017-07-17T16:23:59.662Z,48.70
2017-07-17T16:26:28.779Z,48.70
2017-07-17T16:28:57.826Z,47.50
2017-07-17T16:31:26.706Z,48.70
2017-07-17T16:33:54.955Z,49.00
2017-07-17T16:36:24.218Z,48.90
2017-07-17T16:38:52.461Z,49.80
2017-07-17T16:41:20.722Z,50.70
2017-07-17T16:43:49.647Z,52.40
2017-07-17T16:46:17.892Z,49.50
2017-07-17T16:48:46.902Z,51.60
2017-07-17T16:51:15.178Z,51.60
2017-07-17T16:53:43.405Z,51.40
2017-07-17T16:56:11.675Z,52.50
2017-07-17T16:58:39.951Z,51.50
2017-07-17T17:01:08.177Z,51.00
2017-07-17T17:03:36.443Z,49.40
2017-07-17T17:06:04.736Z,48.70
2017-07-17T17:08:33.904Z,50.10
2017-07-17T17:11:02.172Z,50.60
2017-07-17T17:13:30.449Z,49.80
2017-07-17T17:15:59.521Z,48.80
2017-07-17T17:18:27.829Z,48.80
2017-07-17T17:20:56.110Z,48.20
2017-07-17T17:23:24.335Z,48.20
2017-07-17T17:25:52.615Z,47.70
2017-07-17T17:28:20.869Z,49.90
2017-07-17T17:30:49.114Z,47.40
2017-07-17T17:33:17.395Z,45.20
2017-07-17T17:35:47.244Z,49.40
2017-07-17T17:38:16.269Z,46.20
2017-07-17T17:40:44.538Z,46.10
2017-07-17T17:43:12.885Z,45.40
2017-07-17T17:45:41.149Z,45.30
2017-07-17T17:48:11.120Z,44.90
2017-07-17T17:50:39.403Z,44.90
2017-07-17T17:53:07.678Z,48.20
2017-07-17T17:55:35.990Z,45.60
2017-07-17T17:58:04.253Z,47.30
2017-07-17T18:00:32.512Z,46.20
2017-07-17T18:03:00.781Z,46.90
2017-07-17T18:05:29.046Z,48.00
2017-07-17T18:07:58.001Z,47.40
2017-07-17T18:10:27.086Z,48.00
2017-07-17T18:12:56.118Z,50.40
2017-07-17T18:15:24.359Z,50.30
2017-07-17T18:17:53.409Z,50.20
2017-07-17T18:20:21.687Z,50.20
2017-07-17T18:22:49.935Z,49.90
2017-07-17T18:25:19.064Z,51.80
2017-07-17T18:27:47.310Z,51.70
2017-07-17T18:30:15.607Z,51.80
2017-07-17T18:32:44.724Z,52.30
2017-07-17T18:35:13.119Z,54.30
2017-07-17T18:37:42.981Z,53.80
2017-07-17T18:40:12.473Z,55.30
2017-07-17T18:42:41.597Z,56.90
2017-07-17T18:45:09.871Z,56.80
2017-07-17T18:47:38.117Z,56.80
2017-07-17T18:50:08.111Z,59.20
2017-07-17T18:52:36.387Z,59.20
2017-07-17T18:55:05.436Z,61.10
2017-07-17T18:57:33.725Z,61.60
2017-07-17T19:00:02.008Z,61.40
2017-07-17T19:02:30.319Z,63.60
2017-07-17T19:04:59.485Z,64.60
2017-07-17T19:07:27.758Z,64.60
2017-07-17T19:09:56.055Z,65.70
2017-07-17T19:12:24.306Z,64.90
2017-07-17T19:14:52.584Z,64.50
2017-07-17T19:17:21.575Z,64.40
2017-07-17T19:19:49.915Z,65.30
2017-07-17T19:22:18.641Z,66.50
2017-07-17T19:24:46.849Z,66.20
2017-07-17T19:27:15.911Z,66.30
2017-07-17T19:29:44.191Z,66.40
2017-07-17T19:32:12.509Z,68.10
2017-07-17T19:34:40.779Z,67.60
2017-07-17T19:37:09.078Z,67.70
2017-07-17T19:39:37.316Z,68.30
2017-07-17T19:42:05.587Z,68.10
2017-07-17T19:44:33.841Z,68.10
2017-07-17T19:47:02.129Z,68.00
2017-07-17T19:49:30.425Z,67.60
2017-07-17T19:51:58.674Z,68.60
2017-07-17T19:54:26.982Z,70.00
2017-07-17T19:56:55.342Z,70.10
2017-07-17T19:59:24.540Z,70.30
2017-07-17T20:01:52.808Z,70.30
2017-07-17T20:04:21.062Z,71.50
2017-07-17T20:06:50.713Z,70.60
2017-07-17T20:09:18.999Z,70.70
2017-07-17T20:11:47.300Z,71.10
2017-07-17T20:14:15.673Z,71.30
2017-07-17T20:16:43.949Z,71.30
2017-07-17T20:19:12.256Z,71.40
2017-07-17T20:21:40.869Z,71.70
2017-07-17T20:24:09.157Z,71.70
2017-07-17T20:26:37.595Z,72.00
2017-07-17T20:29:05.859Z,72.60
2017-07-17T20:31:34.908Z,73.10
2017-07-17T20:34:03.194Z,73.10
2017-07-17T20:36:31.474Z,73.30
2017-07-17T20:39:00.051Z,73.50
2017-07-17T20:41:28.385Z,73.70
2017-07-17T20:43:57.415Z,73.50
2017-07-17T20:46:25.747Z,73.60
2017-07-17T20:48:54.027Z,73.80
2017-07-17T20:51:22.306Z,74.00
2017-07-17T20:53:51.355Z,74.70
2017-07-17T20:56:19.652Z,74.70
2017-07-17T20:58:47.938Z,74.90
2017-07-17T21:01:16.220Z,75.20
2017-07-17T21:03:44.482Z,75.40
2017-07-17T21:06:12.824Z,75.40
2017-07-17T21:08:41.139Z,75.20
2017-07-17T21:11:09.454Z,75.70
2017-07-17T21:13:37.701Z,76.00
2017-07-17T21:16:05.938Z,76.20
2017-07-17T21:18:34.192Z,76.50
2017-07-17T21:21:03.269Z,75.60
2017-07-17T21:23:31.528Z,75.60
2017-07-17T21:25:59.807Z,75.60
2017-07-17T21:28:28.086Z,75.50
2017-07-17T21:30:56.347Z,75.60
2017-07-17T21:33:24.695Z,75.70
2017-07-17T21:35:52.939Z,76.00
2017-07-17T21:38:22.041Z,76.10
2017-07-17T21:40:52.272Z,76.00
2017-07-17T21:43:21.315Z,76.70
2017-07-17T21:45:49.558Z,76.50
2017-07-17T21:48:17.993Z,76.30
2017-07-17T21:50:46.409Z,76.50
2017-07-17T21:53:14.759Z,76.80
2017-07-17T21:55:43.115Z,76.90
2017-07-17T21:58:11.376Z,76.90
2017-07-17T22:00:39.635Z,77.10
2017-07-17T22:03:07.936Z,77.30
2017-07-17T22:05:36.800Z,77.30
2017-07-17T22:08:05.109Z,76.90
2017-07-17T22:10:33.378Z,76.90
2017-07-17T22:13:01.643Z,76.80
2017-07-17T22:15:29.971Z,77.80
2017-07-17T22:17:58.232Z,77.20
2017-07-17T22:20:27.231Z,77.40
2017-07-17T22:22:56.262Z,78.60
2017-07-17T22:25:25.313Z,78.10
2017-07-17T22:27:53.753Z,78.00
2017-07-17T22:30:23.675Z,77.30
2017-07-17T22:32:51.930Z,77.30
2017-07-17T22:35:21.706Z,77.90
2017-07-17T22:37:49.961Z,76.90
2017-07-17T22:40:18.216Z,76.70
2017-07-17T22:42:46.467Z,77.10
2017-07-17T22:45:14.775Z,77.40
2017-07-17T22:47:43.018Z,77.60
2017-07-17T22:50:12.080Z,77.60
2017-07-17T22:52:40.364Z,77.60
2017-07-17T22:55:08.588Z,77.60
2017-07-17T22:57:36.844Z,77.50
2017-07-17T23:00:05.987Z,77.60
2017-07-17T23:02:34.227Z,77.50
2017-07-17T23:05:03.266Z,78.00
2017-07-17T23:07:31.543Z,77.90
2017-07-17T23:09:59.848Z,77.50
2017-07-17T23:12:28.091Z,77.60
2017-07-17T23:14:57.129Z,78.00
2017-07-17T23:17:25.345Z,78.00
2017-07-17T23:19:53.612Z,78.30
2017-07-17T23:22:22.056Z,78.30
2017-07-17T23:24:51.106Z,78.40
2017-07-17T23:27:19.354Z,78.00
2017-07-17T23:29:48.493Z,78.30
2017-07-17T23:32:16.835Z,78.30
2017-07-17T23:34:45.114Z,78.40
2017-07-17T23:37:14.365Z,78.50
2017-07-17T23:39:43.604Z,78.60
2017-07-17T23:42:13.460Z,78.70
2017-07-17T23:44:41.661Z,78.60
2017-07-17T23:47:09.962Z,78.50
2017-07-17T23:49:38.202Z,78.60
2017-07-17T23:52:06.477Z,78.60
2017-07-17T23:54:34.710Z,78.60
2017-07-17T23:57:03.755Z,78.40
2017-07-17T23:59:32.095Z,78.30
